Time;durP1;ratioP1;P1;durP2;ratioP2;P2;SDS_P1;SDS_P2;PMS_P1;PMS_P2;Temp;Humidity;BMP_temperature;BMP_pressure;BME280_temperature;BME280_humidity;BME280_pressure;Samples;Min_cycle;Max_cycle;Signal;HPM_P1;HPM_P2
2021/03/19 00:01:59;;;;;;;9.80;7.63;;;2.60;75.60;;;1.49;60.55;94725.22;5012624;28;20220;-82
2021/03/19 00:04:26;;;;;;;9.88;7.80;;;2.60;75.60;;;1.46;60.66;94715.16;5046274;28;20193;-82
2021/03/19 00:06:54;;;;;;;12.18;8.13;;;2.60;75.70;;;1.46;60.93;94724.69;5046108;28;20227;-83
2021/03/19 00:09:21;;;;;;;12.07;8.23;;;2.60;75.70;;;1.43;60.94;94721.41;5029862;28;20292;-83
2021/03/19 00:11:49;;;;;;;10.13;7.55;;;2.60;75.80;;;1.43;60.84;94715.44;5030729;28;20216;-83
2021/03/19 00:14:16;;;;;;;11.10;7.40;;;2.50;75.70;;;1.41;60.82;94720.72;5031361;28;20189;-82
2021/03/19 00:16:42;;;;;;;10.15;7.40;;;2.60;75.80;;;1.38;60.40;94715.84;5032995;28;20220;-82
2021/03/19 00:19:10;;;;;;;11.25;7.32;;;2.50;75.70;;;1.35;61.16;94710.16;5032046;28;20254;-83
2021/03/19 00:21:38;;;;;;;9.82;7.05;;;2.50;75.70;;;1.33;61.11;94714.63;5015651;28;20227;-83
2021/03/19 00:24:06;;;;;;;11.52;7.57;;;2.50;75.70;;;1.32;61.14;94715.59;5033212;28;20204;-82
2021/03/19 00:26:34;;;;;;;10.30;7.57;;;2.40;75.70;;;1.28;61.20;94710.72;5034845;28;20314;-82
2021/03/19 00:29:01;;;;;;;9.85;7.45;;;2.40;75.80;;;1.26;60.77;94714.41;5051787;28;20566;-83
2021/03/19 00:31:28;;;;;;;9.50;7.43;;;2.40;75.80;;;1.23;61.28;94705.16;5051818;28;20262;-83
2021/03/19 00:33:54;;;;;;;9.93;7.40;;;2.40;75.80;;;1.21;60.99;94704.47;5050834;28;20192;-83
2021/03/19 00:36:21;;;;;;;10.95;7.60;;;2.40;75.80;;;1.19;61.05;94705.56;5032771;28;20211;-83
2021/03/19 00:38:48;;;;;;;9.77;7.18;;;2.30;75.70;;;1.11;60.66;94695.91;5051375;28;20196;-83
2021/03/19 00:41:15;;;;;;;11.85;7.53;;;2.30;75.70;;;1.05;61.02;94689.56;5051471;28;20618;-83
2021/03/19 00:43:42;;;;;;;9.57;7.00;;;2.30;75.70;;;1.06;61.01;94692.94;5035221;28;20196;-83
2021/03/19 00:46:09;;;;;;;10.50;7.40;;;2.30;75.70;;;0.98;61.05;94688.47;5030429;28;20290;-84
2021/03/19 00:48:35;;;;;;;10.70;7.70;;;2.20;75.70;;;0.97;61.29;94697.16;5015215;28;20213;-83
2021/03/19 00:51:03;;;;;;;9.27;7.00;;;2.20;75.80;;;0.94;60.84;94698.25;5014941;28;20244;-83
2021/03/19 00:53:29;;;;;;;10.15;7.43;;;2.10;75.60;;;0.90;61.06;94694.31;5015387;28;20228;-82
2021/03/19 00:55:56;;;;;;;11.40;7.22;;;2.10;75.60;;;0.85;61.38;94688.75;5031068;28;20567;-83
2021/03/19 00:58:23;;;;;;;10.05;7.50;;;2.10;75.70;;;0.79;61.10;94699.63;5015086;28;20205;-83
2021/03/19 01:00:50;;;;;;;9.60;7.28;;;2.00;75.60;;;0.75;61.09;94687.97;5032404;28;20581;-82
2021/03/19 01:03:17;;;;;;;11.88;8.10;;;2.10;75.70;;;0.67;61.09;94685.25;5017493;28;20235;-83
2021/03/19 01:05:46;;;;;;;11.32;7.72;;;2.00;75.60;;;0.63;61.29;94690.69;5035974;28;20266;-82
2021/03/19 01:08:15;;;;;;;9.23;6.70;;;1.90;75.60;;;0.57;61.26;94683.47;5018585;28;20278;-83
2021/03/19 01:10:44;;;;;;;12.18;7.53;;;1.90;75.70;;;0.52;61.44;94680.47;5034415;28;20284;-83
2021/03/19 01:13:12;;;;;;;10.45;7.35;;;1.80;75.50;;;0.47;61.23;94680.06;5018793;28;20239;-83
2021/03/19 01:15:40;;;;;;;11.02;7.05;;;1.80;75.60;;;0.43;61.33;94686.47;5034925;28;20194;-83
2021/03/19 01:18:16;;;;;;;9.18;6.70;;;1.70;75.50;;;0.37;60.98;94682.66;5035001;28;20211;-82
2021/03/19 01:20:46;;;;;;;9.57;7.30;;;1.70;75.70;;;0.32;61.43;94682.25;5018450;28;20215;-82
2021/03/19 01:23:14;;;;;;;8.90;6.75;;;1.60;75.60;;;0.27;61.26;94682.66;5018465;28;20224;-83
2021/03/19 01:25:42;;;;;;;12.52;7.75;;;1.60;75.60;;;0.24;61.53;94682.09;5034786;28;20443;-82
2021/03/19 01:28:09;;;;;;;10.23;7.30;;;1.50;75.60;;;0.18;61.64;94683.44;5018301;28;20243;-82
2021/03/19 01:30:39;;;;;;;10.55;7.55;;;1.50;75.70;;;0.14;61.80;94677.72;5034856;28;20201;-83
2021/03/19 01:33:07;;;;;;;9.02;6.93;;;1.50;75.90;;;0.13;61.62;94676.09;5017406;28;20204;-82
2021/03/19 01:35:38;;;;;;;12.15;8.00;;;1.40;75.70;;;0.10;62.04;94685.88;5001914;28;20556;-82
2021/03/19 01:38:05;;;;;;;11.13;7.80;;;1.40;76.00;;;0.05;62.26;94675.97;5018294;28;20188;-83
2021/03/19 01:40:44;;;;;;;10.60;7.53;;;1.40;75.90;;;0.07;62.01;94671.47;5017919;28;20292;-83
2021/03/19 01:43:22;;;;;;;9.48;7.25;;;1.30;76.10;;;0.04;62.41;94681.22;5034571;28;20192;-84
2021/03/19 01:46:22;;;;;;;11.82;7.63;;;1.30;76.00;;;0.01;61.95;94679.75;5034449;28;20216;-83
2021/03/19 01:49:46;;;;;;;10.77;7.32;;;1.30;76.20;;;-0.03;61.97;94678.38;5034490;28;20272;-82
2021/03/19 01:53:09;;;;;;;10.43;7.35;;;1.20;76.20;;;-0.10;62.22;94675.50;5034203;28;20223;-83
2021/03/19 01:56:32;;;;;;;10.00;7.18;;;1.20;76.20;;;-0.12;62.29;94677.41;5033975;28;20214;-82
2021/03/19 01:59:56;;;;;;;10.20;7.35;;;1.20;76.30;;;-0.17;62.22;94680.38;5017818;28;20200;-83
2021/03/19 02:03:18;;;;;;;10.50;7.15;;;1.10;76.20;;;-0.20;62.73;94675.47;5049916;28;20724;-83
2021/03/19 02:06:42;;;;;;;8.38;6.80;;;1.10;76.20;;;-0.22;62.24;94668.84;5033955;28;20652;-82
2021/03/19 02:10:05;;;;;;;9.90;6.88;;;1.10;76.30;;;-0.23;62.43;94665.44;5017592;28;20208;-83
2021/03/19 02:13:29;;;;;;;9.88;6.95;;;1.00;76.40;;;-0.24;62.53;94658.66;5035254;28;20228;-83
2021/03/19 02:16:52;;;;;;;9.00;5.78;;;1.10;76.40;;;-0.26;62.63;94659.75;5033716;28;20229;-82
2021/03/19 02:20:15;;;;;;;9.38;6.68;;;1.00;76.30;;;-0.27;62.97;94658.09;5036368;28;20247;-82
2021/03/19 02:23:38;;;;;;;10.10;6.50;;;1.00;76.50;;;-0.26;62.60;94663.13;5036083;28;20222;-82
2021/03/19 02:27:09;;;;;;;8.82;6.20;;;1.00;76.60;;;-0.25;62.27;94661.38;5035971;28;20212;-83
2021/03/19 02:30:32;;;;;;;7.47;6.35;;;1.00;76.50;;;-0.26;62.41;94659.75;5060223;28;20211;-83
2021/03/19 02:32:59;;;;;;;10.13;7.22;;;1.00;76.50;;;-0.27;62.75;94652.94;5053158;28;20196;-82
2021/03/19 02:35:26;;;;;;;8.30;6.45;;;1.00;76.40;;;-0.22;62.32;94661.09;5053344;28;20200;-82
2021/03/19 02:37:53;;;;;;;8.88;6.57;;;1.00;76.40;;;-0.20;62.23;94657.44;5036706;28;20220;-82
2021/03/19 02:40:24;;;;;;;9.02;6.55;;;1.00;76.50;;;-0.14;62.44;94653.53;5053297;28;20288;-81
2021/03/19 02:42:53;;;;;;;10.35;6.60;;;1.00;76.60;;;-0.11;62.29;94653.28;5030005;28;20258;-83
2021/03/19 02:45:23;;;;;;;9.45;6.43;;;1.00;76.70;;;-0.05;62.51;94650.16;5017417;28;20204;-82
2021/03/19 02:47:50;;;;;;;7.97;6.25;;;1.00;76.80;;;0.01;62.34;94655.72;5016864;28;20258;-83
2021/03/19 02:50:17;;;;;;;8.82;6.20;;;1.10;76.80;;;0.06;62.02;94650.97;5017976;28;20717;-83
2021/03/19 02:52:45;;;;;;;9.68;6.80;;;1.10;76.70;;;0.10;61.99;94644.63;5033298;28;20248;-83
2021/03/19 02:55:17;;;;;;;10.50;6.65;;;1.10;76.80;;;0.14;61.77;94644.19;5033025;28;20531;-82
2021/03/19 02:57:44;;;;;;;7.57;6.18;;;1.10;76.80;;;0.20;62.05;94650.59;5040704;28;20243;-82
2021/03/19 03:00:17;;;;;;;8.55;6.35;;;1.20;76.80;;;0.24;61.71;94653.72;5052799;28;20193;-82
2021/03/19 03:02:44;;;;;;;8.15;6.10;;;1.20;76.90;;;0.31;62.04;94662.56;5029646;28;20590;-82
2021/03/19 03:05:13;;;;;;;7.80;5.90;;;1.20;76.80;;;0.37;61.87;94664.59;5017497;28;20208;-82
2021/03/19 03:07:40;;;;;;;7.28;5.65;;;1.30;76.80;;;0.39;62.17;94657.53;5018434;28;20231;-81
2021/03/19 03:10:12;;;;;;;7.65;5.93;;;1.40;76.90;;;0.49;61.85;94665.28;5020813;28;20270;-82
2021/03/19 03:12:39;;;;;;;6.40;5.22;;;1.40;77.00;;;0.54;61.74;94662.28;5041754;28;20215;-82
2021/03/19 03:15:11;;;;;;;6.85;5.18;;;1.40;76.90;;;0.61;61.62;94660.78;5016688;28;20229;-83
2021/03/19 03:17:38;;;;;;;7.15;5.32;;;1.50;77.00;;;0.65;61.95;94659.56;5016213;28;20225;-83
2021/03/19 03:20:13;;;;;;;7.68;5.63;;;1.50;77.00;;;0.72;61.64;94662.41;5033520;28;20193;-82
2021/03/19 03:22:42;;;;;;;9.02;6.13;;;1.60;77.00;;;0.75;61.79;94662.94;5016970;28;20227;-82
2021/03/19 03:25:13;;;;;;;7.05;5.53;;;1.60;77.00;;;0.80;61.40;94662.53;5035507;28;20773;-82
2021/03/19 03:27:40;;;;;;;8.07;6.00;;;1.70;77.00;;;0.81;61.60;94646.09;5035657;28;20231;-83
2021/03/19 03:30:26;;;;;;;7.40;5.60;;;1.70;76.90;;;0.86;61.52;94653.44;5051491;28;20199;-83
2021/03/19 03:32:53;;;;;;;7.60;5.72;;;1.80;77.10;;;0.85;61.70;94652.59;5019726;28;20247;-82
2021/03/19 03:35:21;;;;;;;7.53;5.68;;;1.80;76.80;;;0.90;61.60;94660.75;5052062;28;20192;-83
2021/03/19 03:37:49;;;;;;;6.88;5.65;;;1.80;76.80;;;0.91;61.49;94657.22;5052372;28;20322;-82
2021/03/19 03:40:25;;;;;;;9.15;6.30;;;1.90;76.80;;;0.93;61.81;94657.09;5052031;28;20196;-83
2021/03/19 03:42:52;;;;;;;7.43;5.72;;;1.90;76.80;;;0.94;61.61;94658.69;5035570;28;20211;-82
2021/03/19 03:45:20;;;;;;;8.70;6.70;;;1.90;76.70;;;0.92;61.92;94661.44;5035556;28;20226;-82
2021/03/19 03:47:48;;;;;;;9.63;6.68;;;2.00;76.70;;;0.91;62.03;94653.81;5030746;28;20236;-82
2021/03/19 03:50:19;;;;;;;8.75;6.47;;;2.00;76.70;;;0.87;61.98;94649.91;5017035;28;20199;-83
2021/03/19 03:53:09;;;;;;;8.35;6.43;;;2.00;76.70;;;0.85;61.81;94654.38;5039443;28;20200;-82
2021/03/19 03:55:38;;;;;;;9.25;6.80;;;2.00;76.60;;;0.82;61.61;94655.47;5041932;28;20263;-82
2021/03/19 03:58:07;;;;;;;7.05;5.78;;;2.00;76.50;;;0.79;61.85;94660.91;5013701;28;20646;-82
2021/03/19 04:00:34;;;;;;;8.82;6.20;;;2.00;76.40;;;0.73;61.84;94657.13;5045085;28;20651;-83
2021/03/19 04:03:04;;;;;;;9.18;6.47;;;1.90;76.30;;;0.67;61.96;94652.47;5041995;28;20223;-82
2021/03/19 04:05:36;;;;;;;9.55;6.78;;;1.90;76.40;;;0.61;62.73;94651.28;5027731;28;20307;-80
2021/03/19 04:08:06;;;;;;;8.55;6.30;;;1.90;76.50;;;0.60;62.35;94646.28;5005963;28;20252;-79
2021/03/19 04:10:33;;;;;;;11.65;6.63;;;1.80;76.50;;;0.58;62.57;94643.00;5054479;28;20517;-80
2021/03/19 04:13:00;;;;;;;8.90;6.43;;;1.80;76.60;;;0.55;62.71;94641.50;5027412;28;20199;-79
2021/03/19 04:15:28;;;;;;;9.35;6.93;;;1.80;76.70;;;0.53;63.14;94640.03;5031544;28;20661;-79
2021/03/19 04:18:03;;;;;;;9.27;6.80;;;1.80;76.80;;;0.50;63.11;94641.13;5021929;28;20223;-79
2021/03/19 04:20:30;;;;;;;9.55;6.88;;;1.70;76.90;;;0.47;63.41;94642.16;5033262;28;20275;-79
2021/03/19 04:22:58;;;;;;;10.18;7.25;;;1.70;77.00;;;0.46;63.29;94650.91;5007369;28;20250;-80
2021/03/19 04:25:25;;;;;;;7.95;6.35;;;1.70;77.00;;;0.45;63.64;94649.25;5033637;28;20201;-80
2021/03/19 04:27:58;;;;;;;8.45;6.32;;;1.70;77.00;;;0.47;63.21;94643.94;5037648;28;20745;-80
2021/03/19 04:30:38;;;;;;;8.13;6.43;;;1.60;77.00;;;0.45;63.21;94638.09;5046899;28;20189;-80
2021/03/19 04:33:11;;;;;;;9.73;6.93;;;1.60;77.00;;;0.44;63.29;94637.31;5050743;28;20196;-79
2021/03/19 04:35:38;;;;;;;10.25;7.25;;;1.60;77.10;;;0.43;63.47;94637.44;5043482;28;20189;-79
2021/03/19 04:38:15;;;;;;;9.15;6.53;;;1.60;77.20;;;0.38;63.54;94635.28;5028347;28;20666;-79
2021/03/19 04:40:45;;;;;;;9.43;7.15;;;1.60;77.20;;;0.40;64.03;94635.94;5061040;28;20195;-79
2021/03/19 04:43:14;;;;;;;8.90;6.80;;;1.60;77.20;;;0.40;63.09;94632.53;5008196;28;20196;-79
2021/03/19 04:45:44;;;;;;;9.43;7.30;;;1.60;77.10;;;0.39;63.13;94639.47;5026003;28;20243;-79
2021/03/19 04:48:11;;;;;;;8.20;6.22;;;1.60;77.10;;;0.38;62.80;94634.44;5030873;28;20224;-80
2021/03/19 04:50:39;;;;;;;8.45;6.50;;;1.50;76.90;;;0.37;62.68;94643.16;5017478;28;20234;-79
2021/03/19 04:53:07;;;;;;;7.88;6.20;;;1.50;76.90;;;0.35;62.91;94638.09;5018729;28;20219;-80
2021/03/19 04:55:33;;;;;;;8.05;6.18;;;1.50;76.80;;;0.34;62.81;94641.63;5025805;28;20689;-79
2021/03/19 04:58:00;;;;;;;8.98;6.93;;;1.50;76.80;;;0.27;63.15;94643.94;5040656;28;20189;-79
2021/03/19 05:00:27;;;;;;;8.27;6.28;;;1.50;77.00;;;0.29;63.24;94652.38;5023545;28;20605;-80
2021/03/19 05:02:54;;;;;;;8.43;6.88;;;1.50;77.00;;;0.27;63.00;94645.69;5017029;28;20745;-79
2021/03/19 05:05:29;;;;;;;9.23;6.70;;;1.40;77.70;;;0.25;63.23;94652.78;5034602;28;20184;-80
2021/03/19 05:07:58;;;;;;;10.90;7.10;;;1.40;76.90;;;0.20;63.37;94653.19;5034901;28;20228;-81
2021/03/19 05:10:29;;;;;;;10.43;7.05;;;1.40;76.90;;;0.10;63.54;94647.22;5028742;28;20649;-80
2021/03/19 05:12:57;;;;;;;10.73;7.68;;;1.40;77.10;;;0.10;63.98;94655.75;5037688;28;20204;-80
2021/03/19 05:15:26;;;;;;;11.48;7.97;;;1.40;77.10;;;0.11;63.48;94666.88;5052652;28;20215;-80
2021/03/19 05:17:54;;;;;;;11.10;7.88;;;1.40;77.10;;;0.06;63.93;94662.13;5051720;28;20654;-81
2021/03/19 05:20:22;;;;;;;18.83;10.98;;;1.40;77.20;;;0.08;64.34;94667.94;5051390;28;20238;-81
2021/03/19 05:22:50;;;;;;;13.35;8.75;;;1.30;77.30;;;0.08;63.82;94664.56;5035616;28;20239;-81
2021/03/19 05:25:25;;;;;;;12.18;8.00;;;1.30;77.40;;;0.11;63.86;94674.59;5033668;28;20231;-80
2021/03/19 05:27:58;;;;;;;10.98;8.10;;;1.30;77.50;;;0.14;64.01;94679.50;5020423;28;20614;-80
2021/03/19 05:30:26;;;;;;;10.27;7.72;;;1.40;77.50;;;0.16;63.87;94677.63;5052756;28;20192;-80
2021/03/19 05:32:54;;;;;;;9.65;7.05;;;1.30;77.50;;;0.20;64.12;94684.13;5036796;28;20219;-81
2021/03/19 05:35:23;;;;;;;10.10;7.97;;;1.30;77.60;;;0.22;64.33;94671.91;5062564;28;20258;-80
2021/03/19 05:37:50;;;;;;;11.15;7.72;;;1.30;77.70;;;0.27;64.34;94677.50;5017661;28;20593;-81
2021/03/19 05:40:43;;;;;;;11.88;7.85;;;1.40;77.80;;;0.32;63.84;94674.50;5051870;28;20282;-80
2021/03/19 05:43:29;;;;;;;9.57;6.95;;;1.40;77.80;;;0.32;64.10;94674.50;5052288;28;20791;-81
2021/03/19 05:46:11;;;;;;;12.32;7.93;;;1.40;77.90;;;0.35;64.24;94679.38;5020939;28;20227;-80
2021/03/19 05:49:10;;;;;;;10.05;7.60;;;1.50;77.90;;;0.40;63.95;94673.81;5032760;28;20228;-81
2021/03/19 05:51:41;;;;;;;11.93;7.43;;;1.50;77.90;;;0.43;63.81;94671.00;5052916;28;20251;-80
2021/03/19 05:54:34;;;;;;;9.88;7.38;;;1.50;78.00;;;0.50;64.20;94681.56;5030716;28;20201;-80
2021/03/19 05:57:04;;;;;;;10.90;8.15;;;1.50;78.00;;;0.53;64.04;94678.72;5033856;28;20651;-81
2021/03/19 05:59:47;;;;;;;11.77;8.27;;;1.60;78.10;;;0.58;64.11;94679.13;5036579;28;20207;-82
2021/03/19 06:02:34;;;;;;;11.07;8.38;;;1.60;78.00;;;0.64;64.10;94681.97;5010498;28;21778;-81
2021/03/19 06:05:25;;;;;;;9.80;7.07;;;1.70;78.10;;;0.70;64.12;94680.63;5031984;28;20197;-81
2021/03/19 06:07:54;;;;;;;10.95;7.90;;;1.70;78.20;;;0.76;64.04;94684.44;5031640;28;20252;-81
2021/03/19 06:10:34;;;;;;;10.27;7.30;;;1.80;78.20;;;0.87;63.97;94683.47;5031884;28;20559;-82
2021/03/19 06:13:11;;;;;;;10.82;7.60;;;1.80;78.20;;;0.97;63.60;94680.88;5018736;28;20654;-81
2021/03/19 06:15:44;;;;;;;9.95;7.32;;;1.90;78.30;;;0.99;63.72;94673.78;5015407;28;20193;-81
2021/03/19 06:18:42;;;;;;;10.68;6.78;;;1.90;78.20;;;1.16;63.84;94682.59;5032704;28;20280;-82
2021/03/19 06:21:09;;;;;;;11.35;8.23;;;2.00;78.30;;;1.27;63.61;94679.88;5031768;28;20229;-81
2021/03/19 06:23:45;;;;;;;10.18;7.70;;;2.10;78.40;;;1.37;63.34;94677.25;5052526;28;20196;-82
2021/03/19 06:26:34;;;;;;;11.02;7.63;;;2.20;78.30;;;1.48;63.43;94679.66;5016737;28;20216;-80
2021/03/19 06:29:21;;;;;;;11.98;8.65;;;2.30;78.30;;;1.55;62.82;94679.88;5017513;28;20204;-80
2021/03/19 06:32:18;;;;;;;11.38;8.20;;;2.40;78.20;;;1.59;62.90;94673.50;5033322;28;20759;-81
2021/03/19 06:35:09;;;;;;;12.70;8.38;;;2.50;78.00;;;1.65;63.03;94677.25;5036502;28;20280;-80
2021/03/19 06:37:44;;;;;;;11.43;7.78;;;2.50;77.90;;;1.70;62.97;94685.44;5046658;28;20227;-79
2021/03/19 06:40:36;;;;;;;12.10;8.68;;;2.60;78.00;;;1.72;62.89;94683.50;5041886;28;20259;-81
2021/03/19 06:43:23;;;;;;;11.68;7.97;;;2.70;78.00;;;1.77;62.70;94681.31;5043014;28;20383;-80
2021/03/19 06:46:14;;;;;;;10.75;7.93;;;2.70;77.90;;;1.81;63.02;94685.22;5034101;28;20346;-80
2021/03/19 06:49:02;;;;;;;9.70;7.80;;;2.80;77.90;;;1.83;62.76;94685.06;5032726;28;20233;-81
2021/03/19 06:51:38;;;;;;;12.55;8.23;;;2.80;77.80;;;1.84;62.88;94681.53;5016555;28;20225;-82
2021/03/19 06:54:22;;;;;;;10.05;8.15;;;2.80;77.70;;;1.88;62.77;94690.63;5033129;28;20294;-82
2021/03/19 06:57:11;;;;;;;9.88;7.47;;;2.90;77.70;;;1.93;62.83;94685.84;5032409;28;20227;-80
2021/03/19 06:59:49;;;;;;;12.63;7.45;;;2.90;77.70;;;1.98;62.50;94694.00;5032915;28;20292;-81
2021/03/19 07:02:45;;;;;;;11.93;8.27;;;2.90;77.80;;;2.02;62.62;94687.56;5003696;28;20224;-81
2021/03/19 07:05:54;;;;;;;9.57;7.28;;;2.90;77.70;;;2.08;62.71;94692.16;5016255;28;20557;-82
2021/03/19 07:08:35;;;;;;;13.25;8.05;;;3.00;77.70;;;2.10;62.45;94699.78;5034537;28;20235;-81
2021/03/19 07:11:20;;;;;;;10.88;7.82;;;3.10;77.70;;;2.10;62.61;94701.53;5018925;28;20299;-80
2021/03/19 07:14:17;;;;;;;11.52;7.85;;;3.10;77.50;;;2.07;62.17;94697.47;5051491;28;20654;-81
2021/03/19 07:17:14;;;;;;;11.13;7.75;;;3.10;76.70;;;2.05;62.20;94702.81;5049517;28;20585;-80
2021/03/19 07:19:54;;;;;;;12.18;7.80;;;3.10;77.40;;;2.07;62.25;94700.88;5016169;28;20662;-81
2021/03/19 07:22:48;;;;;;;11.80;8.75;;;3.10;77.30;;;2.06;62.23;94707.03;5032276;28;20204;-81
2021/03/19 07:25:55;;;;;;;15.95;9.70;;;3.10;77.30;;;2.07;62.23;94707.84;5018748;28;20200;-80
2021/03/19 07:29:03;;;;;;;13.05;9.23;;;3.10;77.30;;;2.08;62.35;94712.06;5049905;28;20215;-80
2021/03/19 07:31:42;;;;;;;12.00;9.05;;;3.10;77.40;;;2.08;62.47;94704.28;5032343;28;20583;-81
2021/03/19 07:34:15;;;;;;;13.05;9.27;;;3.10;77.50;;;2.12;62.92;94703.03;5031648;28;20219;-81
2021/03/19 07:36:53;;;;;;;11.82;8.98;;;3.10;77.60;;;2.21;62.98;94707.34;5031828;28;20216;-82
2021/03/19 07:40:04;;;;;;;12.45;9.45;;;3.20;77.80;;;2.30;62.77;94717.78;5020652;28;20634;-80
2021/03/19 07:43:09;;;;;;;12.18;8.77;;;3.20;77.80;;;2.35;62.86;94723.34;5031848;28;20223;-81
2021/03/19 07:46:15;;;;;;;12.25;8.80;;;3.20;77.80;;;2.38;62.74;94713.50;5037008;28;20298;-81
2021/03/19 07:49:38;;;;;;;10.57;8.07;;;3.30;77.90;;;2.48;62.58;94717.78;5017321;28;20234;-81
2021/03/19 07:52:18;;;;;;;12.05;8.73;;;3.30;77.80;;;2.52;62.39;94717.34;5035422;28;20212;-80
2021/03/19 07:55:28;;;;;;;12.38;8.98;;;3.40;77.80;;;2.60;62.65;94715.81;5047923;28;20618;-80
2021/03/19 07:58:05;;;;;;;13.82;9.65;;;3.50;77.80;;;2.67;62.79;94704.72;5033326;28;20219;-81
2021/03/19 08:00:38;;;;;;;14.43;9.35;;;3.50;77.90;;;2.69;62.23;94710.56;5041322;28;20188;-79
2021/03/19 08:03:20;;;;;;;15.02;9.27;;;3.60;77.90;;;2.75;62.40;94710.91;5021371;28;20266;-79
2021/03/19 08:05:51;;;;;;;11.80;8.68;;;3.60;78.50;;;2.80;62.29;94714.69;5038473;28;20576;-79
2021/03/19 08:08:54;;;;;;;12.77;8.75;;;3.60;77.80;;;2.91;62.56;94718.03;5035435;28;20677;-78
2021/03/19 08:11:44;;;;;;;13.35;8.52;;;3.70;77.80;;;3.00;62.53;94714.53;5020393;28;20216;-79
2021/03/19 08:15:05;;;;;;;13.98;9.18;;;3.70;77.90;;;3.15;62.71;94715.63;5043695;28;20279;-79
2021/03/19 08:17:58;;;;;;;13.82;8.50;;;3.80;77.80;;;3.35;62.59;94725.81;5028971;28;20632;-79
2021/03/19 08:20:58;;;;;;;10.55;7.85;;;3.90;78.20;;;3.47;62.22;94722.00;5055476;28;20197;-79
2021/03/19 08:23:54;;;;;;;13.38;8.43;;;4.00;78.20;;;3.56;61.76;94720.28;5023754;28;20199;-78
2021/03/19 08:26:42;;;;;;;12.05;8.20;;;4.20;78.00;;;3.61;61.10;94722.41;5020682;28;20266;-79
2021/03/19 08:29:53;;;;;;;12.32;8.73;;;4.30;77.90;;;3.59;60.79;94725.16;5049539;28;20638;-79
2021/03/19 08:32:55;;;;;;;13.82;8.88;;;4.40;77.40;;;3.55;60.70;94728.22;5022197;28;20235;-79
2021/03/19 08:36:12;;;;;;;11.93;8.02;;;4.40;77.10;;;3.56;60.63;94725.44;5041393;28;20207;-79
2021/03/19 08:38:50;;;;;;;10.80;7.82;;;4.40;77.10;;;3.58;60.96;94720.94;5030980;28;20214;-80
2021/03/19 08:41:30;;;;;;;12.35;8.40;;;4.40;77.00;;;3.64;61.03;94728.09;5032460;28;20455;-79
2021/03/19 08:44:04;;;;;;;10.77;7.85;;;4.50;77.30;;;3.75;61.15;94724.44;5040950;28;20208;-79
2021/03/19 08:46:44;;;;;;;12.10;8.88;;;4.50;77.40;;;3.78;60.93;94731.09;5038222;28;20219;-80
2021/03/19 08:49:25;;;;;;;11.77;8.40;;;4.50;77.20;;;3.83;60.64;94737.47;5024816;28;20561;-79
2021/03/19 08:51:56;;;;;;;11.30;7.85;;;4.60;77.10;;;3.83;60.36;94723.66;5022549;28;20239;-78
2021/03/19 08:54:32;;;;;;;9.68;7.60;;;4.60;76.90;;;3.85;60.53;94725.13;5027072;28;20547;-79
2021/03/19 08:57:09;;;;;;;10.45;8.30;;;4.60;76.90;;;3.90;60.41;94729.06;5024230;28;20273;-79
2021/03/19 08:59:36;;;;;;;9.60;8.02;;;4.70;76.90;;;3.92;60.23;94734.88;5033574;28;20200;-79
2021/03/19 09:02:24;;;;;;;10.95;8.05;;;4.70;76.80;;;3.98;60.11;94726.50;5043441;28;20247;-79
2021/03/19 09:04:58;;;;;;;9.13;7.22;;;4.70;77.60;;;4.09;60.59;94731.41;5036248;28;20197;-79
2021/03/19 09:07:40;;;;;;;10.73;7.93;;;4.80;77.10;;;4.18;60.24;94721.88;5050465;28;20224;-79
2021/03/19 09:10:33;;;;;;;11.10;7.90;;;4.80;77.00;;;4.16;60.31;94721.19;5020082;28;20185;-79
2021/03/19 09:13:01;;;;;;;10.75;7.85;;;4.90;76.90;;;4.11;60.42;94723.47;5063645;28;20275;-81
2021/03/19 09:15:51;;;;;;;9.48;7.85;;;5.00;76.70;;;3.94;60.62;94722.56;5046317;28;20568;-81
2021/03/19 09:18:46;;;;;;;8.82;6.88;;;5.00;76.60;;;3.81;60.61;94726.41;5029894;28;20497;-81
2021/03/19 09:21:38;;;;;;;8.10;6.63;;;4.90;76.70;;;3.72;61.23;94729.91;5029773;28;20548;-81
2021/03/19 09:24:24;;;;;;;9.65;7.25;;;4.80;76.80;;;3.67;61.47;94734.75;5033103;28;20197;-81
2021/03/19 09:26:59;;;;;;;8.75;7.35;;;4.70;76.80;;;3.61;61.64;94731.00;5017789;28;20661;-80
2021/03/19 09:29:31;;;;;;;8.93;6.82;;;4.70;76.90;;;3.61;62.07;94732.78;5017785;28;20582;-81
2021/03/19 09:32:21;;;;;;;9.50;7.18;;;4.60;76.90;;;3.61;61.98;94731.00;5043280;28;20266;-81
2021/03/19 09:34:49;;;;;;;9.25;7.60;;;4.60;77.10;;;3.61;62.39;94738.78;5031542;28;20197;-80
2021/03/19 09:37:34;;;;;;;9.90;7.25;;;4.60;77.40;;;3.63;62.07;94730.84;5019351;28;20625;-80
2021/03/19 09:40:08;;;;;;;9.93;7.18;;;4.60;77.50;;;3.76;62.47;94741.63;5046703;28;20189;-80
2021/03/19 09:42:49;;;;;;;9.48;7.47;;;4.50;77.60;;;3.83;62.67;94736.63;5030649;28;20577;-81
2021/03/19 09:45:26;;;;;;;14.38;8.10;;;4.60;77.90;;;3.91;62.39;94735.88;5015920;28;20189;-81
2021/03/19 09:48:20;;;;;;;10.35;8.20;;;4.60;78.00;;;3.98;62.45;94732.50;4999514;28;20719;-81
2021/03/19 09:51:03;;;;;;;8.90;6.95;;;4.70;78.10;;;4.13;62.28;94734.50;5032005;28;20185;-81
2021/03/19 09:53:38;;;;;;;9.38;6.88;;;4.70;78.20;;;4.31;62.48;94729.22;5032164;28;20200;-81
2021/03/19 09:56:19;;;;;;;9.82;7.40;;;4.70;78.60;;;4.50;62.57;94725.53;5014992;28;20216;-79
2021/03/19 09:58:53;;;;;;;11.00;8.32;;;4.90;78.90;;;4.69;62.11;94731.41;5032589;28;20232;-80
2021/03/19 10:01:27;;;;;;;11.15;8.57;;;5.00;78.70;;;4.80;62.36;94728.50;5033357;28;20628;-80
2021/03/19 10:04:01;;;;;;;9.75;7.85;;;5.10;78.50;;;4.86;61.79;94727.03;5016980;28;20204;-80
2021/03/19 10:06:43;;;;;;;10.68;8.55;;;5.30;78.50;;;4.95;61.80;94729.47;5033765;28;20217;-80
2021/03/19 10:09:15;;;;;;;11.23;8.95;;;5.40;78.30;;;5.04;61.70;94732.09;5017394;28;20581;-80
2021/03/19 10:12:11;;;;;;;12.68;9.88;;;5.50;78.30;;;5.04;61.13;94732.94;5034127;28;20625;-79
2021/03/19 10:14:48;;;;;;;11.38;8.93;;;5.50;77.90;;;5.08;61.31;94734.22;5017089;28;20201;-80
2021/03/19 10:17:25;;;;;;;13.95;9.30;;;5.60;78.10;;;5.18;61.40;94733.25;5033388;28;20213;-80
2021/03/19 10:20:11;;;;;;;12.77;9.95;;;5.60;78.10;;;5.20;60.76;94734.72;5017082;28;20184;-81
2021/03/19 10:22:43;;;;;;;13.85;10.25;;;5.70;77.60;;;5.13;59.95;94726.72;5034501;28;20217;-80
2021/03/19 10:25:28;;;;;;;13.05;10.43;;;5.70;77.00;;;5.07;60.39;94729.97;5033109;28;20271;-80
2021/03/19 10:28:13;;;;;;;13.93;10.25;;;5.70;76.90;;;5.15;60.95;94731.78;5018827;28;20236;-81
2021/03/19 10:31:02;;;;;;;11.40;9.52;;;5.70;77.30;;;5.18;60.56;94728.84;5033061;28;20200;-80
2021/03/19 10:33:38;;;;;;;14.05;10.27;;;5.80;77.30;;;5.25;60.89;94723.81;5032390;28;20205;-81
2021/03/19 10:36:49;;;;;;;14.27;10.82;;;5.80;78.30;;;5.28;60.90;94713.91;5032677;28;20600;-80
2021/03/19 10:39:35;;;;;;;14.60;11.15;;;5.90;77.50;;;5.34;60.33;94722.81;5032789;28;20200;-80
2021/03/19 10:42:36;;;;;;;12.25;10.30;;;5.90;77.50;;;5.38;60.79;94715.50;5032828;28;20266;-80
2021/03/19 10:45:31;;;;;;;13.27;10.75;;;6.00;77.20;;;5.46;60.79;94718.09;5016802;28;20191;-81
2021/03/19 10:48:27;;;;;;;12.68;10.70;;;6.10;77.50;;;5.57;61.16;94716.97;5032598;28;20236;-81
2021/03/19 10:51:15;;;;;;;13.18;10.57;;;6.10;77.50;;;5.59;60.15;94713.22;5032522;28;20216;-81
2021/03/19 10:54:02;;;;;;;12.68;10.10;;;6.20;76.90;;;5.59;59.03;94714.97;5032826;28;20204;-81
2021/03/19 10:56:31;;;;;;;11.63;9.68;;;6.20;76.30;;;5.61;59.55;94715.63;5032608;28;20221;-80
2021/03/19 10:59:31;;;;;;;14.20;10.63;;;6.20;76.30;;;5.63;59.31;94711.09;5016401;28;20221;-80
2021/03/19 11:02:14;;;;;;;12.90;10.40;;;6.30;76.40;;;5.77;60.13;94707.81;5015881;28;20232;-81
2021/03/19 11:05:08;;;;;;;11.82;9.77;;;6.30;77.10;;;6.02;60.26;94710.34;5033817;28;20185;-82
2021/03/19 11:07:42;;;;;;;11.95;9.73;;;6.30;77.20;;;6.29;60.42;94702.28;5020117;28;20237;-81
2021/03/19 11:10:21;;;;;;;13.80;10.73;;;6.50;77.60;;;6.65;60.66;94702.56;5032354;28;20189;-82
2021/03/19 11:13:20;;;;;;;14.80;11.20;;;6.60;78.30;;;7.02;60.27;94702.81;5016575;28;20216;-81
2021/03/19 11:15:50;;;;;;;14.55;11.32;;;6.80;78.70;;;7.28;59.42;94706.84;5030216;28;20279;-83
2021/03/19 11:18:35;;;;;;;11.98;10.00;;;7.10;78.20;;;7.34;58.27;94708.75;5033109;28;20201;-82
2021/03/19 11:21:08;;;;;;;13.90;10.80;;;7.30;77.20;;;7.22;57.49;94710.94;5016297;28;20219;-82
2021/03/19 11:23:41;;;;;;;10.82;9.23;;;7.50;76.40;;;6.95;56.86;94717.53;5032571;28;20207;-81